createdAt,value
2023-04-13T00:00:48.706Z,1.83
2023-04-13T00:03:17.956Z,0.95
2023-04-13T00:05:48.799Z,1.13
2023-04-13T00:08:17.250Z,1.38
2023-04-13T00:10:46.206Z,1.20
2023-04-13T00:13:15.038Z,0.88
2023-04-13T00:15:43.544Z,1.33
2023-04-13T00:18:11.196Z,1.13
2023-04-13T00:20:38.964Z,1.10
2023-04-13T00:23:05.810Z,1.23
2023-04-13T00:25:32.820Z,1.10
2023-04-13T00:28:03.845Z,1.83
2023-04-13T00:30:30.891Z,0.95
2023-04-13T00:32:57.819Z,1.10
2023-04-13T00:35:26.723Z,1.27
2023-04-13T00:37:54.205Z,1.23
2023-04-13T00:40:21.084Z,1.30
2023-04-13T00:42:50.005Z,1.38
2023-04-13T00:45:21.100Z,1.15
2023-04-13T00:47:49.285Z,1.45
2023-04-13T00:50:21.252Z,2.08
2023-04-13T00:52:49.194Z,1.40
2023-04-13T00:55:21.222Z,1.90
2023-04-13T00:57:50.508Z,1.90
2023-04-13T01:00:18.577Z,1.60
2023-04-13T01:02:45.816Z,1.65
2023-04-13T01:05:15.735Z,2.65
2023-04-13T01:08:15.026Z,1.50
2023-04-13T01:10:56.847Z,1.80
2023-04-13T01:13:37.982Z,2.03
2023-04-13T01:16:19.558Z,2.03
2023-04-13T01:18:50.450Z,1.30
2023-04-13T01:21:20.649Z,2.45
2023-04-13T01:24:11.922Z,1.40
2023-04-13T01:26:47.506Z,1.13
2023-04-13T01:29:14.791Z,1.20
2023-04-13T01:31:42.222Z,1.30
2023-04-13T01:34:09.805Z,1.23
2023-04-13T01:36:40.013Z,1.40
2023-04-13T01:39:07.484Z,1.30
2023-04-13T01:41:34.313Z,1.27
2023-04-13T01:44:01.590Z,1.30
2023-04-13T01:46:34.332Z,1.58
2023-04-13T01:49:04.136Z,1.75
2023-04-13T01:51:34.781Z,1.48
2023-04-13T01:54:29.236Z,1.70
2023-04-13T01:57:00.256Z,1.30
2023-04-13T01:59:28.290Z,1.40
2023-04-13T02:01:55.366Z,1.73
2023-04-13T02:04:22.719Z,1.77
2023-04-13T02:06:51.592Z,1.52
2023-04-13T02:09:18.486Z,1.80
2023-04-13T02:11:45.366Z,2.78
2023-04-13T02:14:12.248Z,1.50
2023-04-13T02:16:39.208Z,1.70
2023-04-13T02:19:06.219Z,1.52
2023-04-13T02:21:34.850Z,1.40
2023-04-13T02:24:01.670Z,1.20
2023-04-13T02:26:28.534Z,1.15
2023-04-13T02:28:56.571Z,1.30
2023-04-13T02:31:23.665Z,1.65
2023-04-13T02:33:51.860Z,1.77
2023-04-13T02:36:19.386Z,1.67
2023-04-13T02:38:46.361Z,1.50
2023-04-13T02:41:13.212Z,1.70
2023-04-13T02:43:40.661Z,1.40
2023-04-13T02:46:08.882Z,1.48
2023-04-13T02:48:36.643Z,1.52
2023-04-13T02:51:03.743Z,2.28
2023-04-13T02:53:30.615Z,1.80
2023-04-13T02:55:57.849Z,1.80
2023-04-13T02:58:25.516Z,1.60
2023-04-13T03:00:52.520Z,1.67
2023-04-13T03:03:20.594Z,2.30
2023-04-13T03:05:50.401Z,2.08
2023-04-13T03:08:17.650Z,1.60
2023-04-13T03:10:44.960Z,1.83
2023-04-13T03:13:12.197Z,2.05
2023-04-13T03:15:40.784Z,1.52
2023-04-13T03:18:07.779Z,1.55
2023-04-13T03:20:35.010Z,1.60
2023-04-13T03:23:02.114Z,1.75
2023-04-13T03:25:29.285Z,1.67
2023-04-13T03:27:56.436Z,1.70
2023-04-13T03:30:23.672Z,1.50
2023-04-13T03:32:52.431Z,1.40
2023-04-13T03:35:19.312Z,1.50
2023-04-13T03:37:46.178Z,1.77
2023-04-13T03:40:13.227Z,1.70
2023-04-13T03:42:40.113Z,1.42
2023-04-13T03:45:07.721Z,1.55
2023-04-13T03:47:34.731Z,1.80
2023-04-13T03:50:01.684Z,1.33
2023-04-13T03:52:28.574Z,1.55
2023-04-13T03:54:55.535Z,1.30
2023-04-13T03:57:25.219Z,1.70
2023-04-13T03:59:52.226Z,1.50
2023-04-13T04:02:19.339Z,2.03
2023-04-13T04:04:46.586Z,2.05
2023-04-13T04:07:13.544Z,1.42
2023-04-13T04:09:41.785Z,1.75
2023-04-13T04:12:08.694Z,1.40
2023-04-13T04:14:36.052Z,1.50
2023-04-13T04:17:03.251Z,1.30
2023-04-13T04:19:30.171Z,1.63
2023-04-13T04:21:58.216Z,1.50
2023-04-13T04:24:27.676Z,1.60
2023-04-13T04:26:56.118Z,1.52
2023-04-13T04:29:29.894Z,2.05
2023-04-13T04:31:56.895Z,1.52
2023-04-13T04:34:23.848Z,1.90
2023-04-13T04:36:51.060Z,1.55
2023-04-13T04:39:26.785Z,2.10
2023-04-13T04:41:55.089Z,1.80
2023-04-13T04:44:25.362Z,1.45
2023-04-13T04:46:53.111Z,1.40
2023-04-13T04:49:21.768Z,1.73
2023-04-13T04:51:49.747Z,1.65
2023-04-13T04:54:17.320Z,1.67
2023-04-13T04:56:45.751Z,1.70
2023-04-13T04:59:12.977Z,1.63
2023-04-13T05:01:40.525Z,1.30
2023-04-13T05:04:08.191Z,1.42
2023-04-13T05:06:35.135Z,1.42
2023-04-13T05:09:04.412Z,1.63
2023-04-13T05:11:32.336Z,1.63
2023-04-13T05:14:00.348Z,1.55
2023-04-13T05:16:30.544Z,1.45
2023-04-13T05:18:58.078Z,2.13
2023-04-13T05:21:25.996Z,1.58
2023-04-13T05:23:53.358Z,1.52
2023-04-13T05:26:20.523Z,1.85
2023-04-13T05:28:47.652Z,1.63
2023-04-13T05:31:15.871Z,1.70
2023-04-13T05:33:42.887Z,1.63
2023-04-13T05:36:09.958Z,1.80
2023-04-13T05:38:36.885Z,1.52
2023-04-13T05:41:03.812Z,1.48
2023-04-13T05:43:31.064Z,1.90
2023-04-13T05:45:58.324Z,2.70
2023-04-13T05:48:25.640Z,1.70
2023-04-13T05:50:58.296Z,1.33
2023-04-13T05:53:26.014Z,2.03
2023-04-13T05:58:35.172Z,1.80
2023-04-13T06:01:02.086Z,1.67
2023-04-13T06:03:30.057Z,1.85
2023-04-13T06:05:57.229Z,2.03
2023-04-13T06:08:24.132Z,1.60
2023-04-13T06:10:51.232Z,1.98
2023-04-13T06:13:18.386Z,1.80
2023-04-13T06:15:45.210Z,1.70
2023-04-13T06:18:12.442Z,1.95
2023-04-13T06:20:39.887Z,1.98
2023-04-13T06:23:07.584Z,1.75
2023-04-13T06:25:35.240Z,1.95
2023-04-13T06:28:02.852Z,2.05
2023-04-13T06:30:29.836Z,3.20
2023-04-13T06:32:56.928Z,2.15
2023-04-13T06:35:23.805Z,2.28
2023-04-13T06:37:50.722Z,2.05
2023-04-13T06:40:17.956Z,2.00
2023-04-13T06:42:44.873Z,2.05
2023-04-13T06:45:12.576Z,1.80
2023-04-13T06:47:43.204Z,2.30
2023-04-13T06:50:14.078Z,2.38
2023-04-13T06:52:44.379Z,2.50
2023-04-13T06:55:11.607Z,2.40
2023-04-13T06:57:38.626Z,2.67
2023-04-13T07:00:15.400Z,2.63
2023-04-13T07:02:49.245Z,2.65
2023-04-13T07:05:16.632Z,2.25
2023-04-13T07:07:43.526Z,2.25
2023-04-13T07:10:10.872Z,2.30
2023-04-13T07:12:37.787Z,2.58
2023-04-13T07:15:05.171Z,1.90
2023-04-13T07:17:32.170Z,3.70
2023-04-13T07:19:59.073Z,2.17
2023-04-13T07:22:30.721Z,2.83
2023-04-13T07:24:57.609Z,3.22
2023-04-13T07:27:24.529Z,1.92
2023-04-13T07:29:52.492Z,2.33
2023-04-13T07:32:21.186Z,2.33
2023-04-13T07:34:48.231Z,2.67
2023-04-13T07:37:15.287Z,2.80
2023-04-13T07:39:43.262Z,2.30
2023-04-13T07:42:10.177Z,2.25
2023-04-13T07:44:37.033Z,2.80
2023-04-13T07:47:03.929Z,2.22
2023-04-13T07:49:30.969Z,2.38
2023-04-13T07:51:59.074Z,2.50
2023-04-13T07:54:26.213Z,2.88
2023-04-13T07:56:53.182Z,2.05
2023-04-13T07:59:20.034Z,2.20
2023-04-13T08:01:46.987Z,2.28
2023-04-13T08:04:14.071Z,2.38
2023-04-13T08:06:41.084Z,2.35
2023-04-13T08:09:09.637Z,2.50
2023-04-13T08:11:36.594Z,3.08
2023-04-13T08:14:03.548Z,2.22
2023-04-13T08:16:34.396Z,2.33
2023-04-13T08:19:02.243Z,2.85
2023-04-13T08:21:30.064Z,2.40
2023-04-13T08:23:57.365Z,2.67
2023-04-13T08:26:25.189Z,2.35
2023-04-13T08:28:53.132Z,2.10
2023-04-13T08:31:20.589Z,1.95
2023-04-13T08:33:47.478Z,2.40
2023-04-13T08:36:14.398Z,2.22
2023-04-13T08:38:41.305Z,2.35
2023-04-13T08:41:10.062Z,2.35
2023-04-13T08:43:37.142Z,2.20
2023-04-13T08:46:08.002Z,2.17
2023-04-13T08:49:05.321Z,2.22
2023-04-13T08:51:28.789Z,2.72
2023-04-13T08:53:59.021Z,2.13
2023-04-13T08:56:42.046Z,1.92
2023-04-13T08:59:12.948Z,5.97
2023-04-13T09:01:41.541Z,2.20
2023-04-13T09:04:10.920Z,2.55
2023-04-13T09:06:41.549Z,2.28
2023-04-13T09:09:14.924Z,1.80
2023-04-13T09:11:43.263Z,1.92
2023-04-13T09:14:10.564Z,2.25
2023-04-13T09:16:43.252Z,2.42
2023-04-13T09:19:11.495Z,1.95
2023-04-13T09:21:43.130Z,2.28
2023-04-13T09:24:11.182Z,2.92
2023-04-13T09:26:49.120Z,2.30
2023-04-13T09:29:18.640Z,2.55
2023-04-13T09:31:47.090Z,2.53
2023-04-13T09:34:25.458Z,2.40
2023-04-13T09:36:54.667Z,2.55
2023-04-13T09:39:28.080Z,2.72
2023-04-13T09:41:55.387Z,2.40
2023-04-13T09:44:28.363Z,2.38
2023-04-13T09:47:00.367Z,2.15
2023-04-13T09:49:43.272Z,2.35
2023-04-13T09:52:23.665Z,2.72
2023-04-13T09:54:52.147Z,2.90
2023-04-13T09:57:29.720Z,2.30
2023-04-13T10:00:00.772Z,1.80
2023-04-13T10:02:28.514Z,2.22
2023-04-13T10:04:56.516Z,2.78
2023-04-13T10:07:26.860Z,2.65
2023-04-13T10:09:54.578Z,2.97
2023-04-13T10:12:24.827Z,2.80
2023-04-13T10:14:57.932Z,3.08
2023-04-13T10:17:46.755Z,3.10
2023-04-13T10:20:15.191Z,3.35
2023-04-13T10:22:44.992Z,3.00
2023-04-13T10:25:29.666Z,2.53
2023-04-13T10:28:00.641Z,2.80
2023-04-13T10:30:28.549Z,2.60
2023-04-13T10:33:07.239Z,3.15
2023-04-13T10:35:37.190Z,2.55
2023-04-13T10:38:04.732Z,2.58
2023-04-13T10:40:43.401Z,1.90
2023-04-13T10:43:10.295Z,2.28
2023-04-13T10:45:37.922Z,2.05
2023-04-13T10:48:06.145Z,2.58
2023-04-13T10:50:33.099Z,2.22
2023-04-13T10:53:01.905Z,2.20
2023-04-13T10:55:29.461Z,2.10
2023-04-13T10:57:57.501Z,2.13
2023-04-13T11:00:44.799Z,2.20
2023-04-13T11:03:19.237Z,2.17
2023-04-13T11:05:47.657Z,2.08
2023-04-13T11:08:21.397Z,1.92
2023-04-13T11:10:52.824Z,2.03
2023-04-13T11:13:20.436Z,1.80
2023-04-13T11:15:49.360Z,2.35
2023-04-13T11:18:26.573Z,2.20
2023-04-13T11:20:54.208Z,1.30
2023-04-13T11:23:24.038Z,1.70
2023-04-13T11:25:56.093Z,1.55
2023-04-13T11:28:24.534Z,1.60
2023-04-13T11:30:58.678Z,1.40
2023-04-13T11:33:30.218Z,2.22
2023-04-13T11:36:01.689Z,1.25
2023-04-13T11:38:29.214Z,1.75
2023-04-13T11:41:15.035Z,1.73
2023-04-13T11:43:46.649Z,1.13
2023-04-13T11:46:16.166Z,1.48
2023-04-13T11:48:43.881Z,1.50
2023-04-13T11:51:11.562Z,1.10
2023-04-13T11:53:39.696Z,1.40
2023-04-13T11:56:07.734Z,1.55
2023-04-13T11:58:36.027Z,1.10
2023-04-13T12:01:14.512Z,1.20
2023-04-13T12:03:57.611Z,1.10
2023-04-13T12:06:29.916Z,1.00
2023-04-13T12:09:10.963Z,1.30
2023-04-13T12:11:44.658Z,1.10
2023-04-13T12:19:27.259Z,1.38
2023-04-13T12:21:57.173Z,1.27
2023-04-13T12:24:39.191Z,1.27
2023-04-13T12:29:40.667Z,1.15
2023-04-13T12:32:14.616Z,1.00
2023-04-13T12:34:43.300Z,1.30
2023-04-13T12:37:13.229Z,1.08
2023-04-13T12:39:41.718Z,1.13
2023-04-13T12:42:08.827Z,1.17
2023-04-13T12:44:36.102Z,0.85
2023-04-13T12:47:03.052Z,0.85
2023-04-13T12:49:30.212Z,1.00
2023-04-13T12:51:57.129Z,1.00
2023-04-13T12:54:24.235Z,1.10
2023-04-13T12:56:52.108Z,1.10
2023-04-13T12:59:21.872Z,1.27
2023-04-13T13:01:49.538Z,1.30
2023-04-13T13:04:17.023Z,1.20
2023-04-13T13:06:43.944Z,1.02
2023-04-13T13:09:10.902Z,1.27
2023-04-13T13:11:37.841Z,0.88
2023-04-13T13:14:05.435Z,1.00
2023-04-13T13:16:32.676Z,1.10
2023-04-13T13:18:59.604Z,1.08
2023-04-13T13:21:26.734Z,1.10
2023-04-13T13:23:53.703Z,1.20
2023-04-13T13:26:24.356Z,1.15
2023-04-13T13:28:52.983Z,1.20
2023-04-13T13:31:20.036Z,1.17
2023-04-13T13:33:47.334Z,1.20
2023-04-13T13:36:14.840Z,1.70
2023-04-13T13:38:43.216Z,1.10
2023-04-13T13:41:10.486Z,1.50
2023-04-13T13:43:38.478Z,0.90
2023-04-13T13:46:06.136Z,1.48
2023-04-13T13:48:33.205Z,1.00
2023-04-13T13:51:00.388Z,1.52
2023-04-13T13:53:27.357Z,1.33
2023-04-13T13:55:55.498Z,1.42
2023-04-13T13:58:22.421Z,1.10
2023-04-13T14:00:50.482Z,1.23
2023-04-13T14:03:17.520Z,1.60
2023-04-13T14:05:44.589Z,1.10
2023-04-13T14:08:11.847Z,0.82
2023-04-13T14:10:39.251Z,1.08
2023-04-13T14:13:06.310Z,1.17
2023-04-13T14:15:33.445Z,1.20
2023-04-13T14:18:09.117Z,1.00
2023-04-13T14:20:39.076Z,0.90
2023-04-13T14:23:06.417Z,1.10
2023-04-13T14:25:34.347Z,1.27
2023-04-13T14:28:01.399Z,1.10
2023-04-13T14:30:28.724Z,1.17
2023-04-13T14:32:56.606Z,1.00
2023-04-13T14:35:24.052Z,0.90
2023-04-13T14:37:51.191Z,1.00
2023-04-13T14:40:21.838Z,1.33
2023-04-13T14:42:50.878Z,1.50
2023-04-13T14:45:17.889Z,1.02
2023-04-13T14:47:45.000Z,1.25
2023-04-13T14:50:12.599Z,1.48
2023-04-13T14:52:39.798Z,1.33
2023-04-13T14:55:07.003Z,1.50
2023-04-13T14:57:33.881Z,1.52
2023-04-13T15:00:00.916Z,1.38
2023-04-13T15:02:28.878Z,1.40
2023-04-13T15:04:56.173Z,1.88
2023-04-13T15:07:29.101Z,1.20
2023-04-13T15:09:56.053Z,1.63
2023-04-13T15:12:23.064Z,1.50
2023-04-13T15:14:50.576Z,1.45
2023-04-13T15:17:17.562Z,1.38
2023-04-13T15:19:44.438Z,1.95
2023-04-13T15:22:11.380Z,1.80
2023-04-13T15:24:38.164Z,1.48
2023-04-13T15:27:05.025Z,1.50
2023-04-13T15:29:32.071Z,1.55
2023-04-13T15:32:00.375Z,1.30
2023-04-13T15:34:27.956Z,1.40
2023-04-13T15:36:57.001Z,1.83
2023-04-13T15:39:23.847Z,2.08
2023-04-13T15:41:52.794Z,1.55
2023-04-13T15:44:19.574Z,1.60
2023-04-13T15:46:48.122Z,1.48
2023-04-13T15:49:15.052Z,1.52
2023-04-13T15:51:41.936Z,1.23
2023-04-13T15:54:08.862Z,1.55
2023-04-13T15:56:35.775Z,1.30
2023-04-13T15:59:03.053Z,1.98
2023-04-13T16:01:44.672Z,1.13
2023-04-13T16:04:11.922Z,1.40
2023-04-13T16:06:39.727Z,1.27
2023-04-13T16:09:07.013Z,1.77
2023-04-13T16:11:33.956Z,1.42
2023-04-13T16:14:07.243Z,1.60
2023-04-13T16:17:00.008Z,1.45
2023-04-13T16:19:27.947Z,1.45
2023-04-13T16:21:54.704Z,1.52
2023-04-13T16:24:21.520Z,1.40
2023-04-13T16:26:48.734Z,1.45
2023-04-13T16:29:15.616Z,1.48
2023-04-13T16:31:45.044Z,1.60
2023-04-13T16:36:45.285Z,1.30
2023-04-13T16:39:13.208Z,1.30
2023-04-13T16:41:40.405Z,1.50
2023-04-13T16:44:07.159Z,1.70
2023-04-13T16:46:34.252Z,1.75
2023-04-13T16:49:01.336Z,1.55
2023-04-13T16:51:30.154Z,1.42
2023-04-13T16:53:57.075Z,1.42
2023-04-13T16:56:29.172Z,1.95
2023-04-13T16:58:56.443Z,1.75
2023-04-13T17:01:25.351Z,1.90
2023-04-13T17:03:53.302Z,1.65
2023-04-13T17:06:21.236Z,2.08
2023-04-13T17:08:48.273Z,1.30
2023-04-13T17:11:15.322Z,1.63
2023-04-13T17:13:42.567Z,1.50
2023-04-13T17:16:10.149Z,1.27
2023-04-13T17:18:37.052Z,1.60
2023-04-13T17:21:03.934Z,1.85
2023-04-13T17:23:31.462Z,1.20
2023-04-13T17:25:58.354Z,1.48
2023-04-13T17:28:25.600Z,1.73
2023-04-13T17:30:52.530Z,1.70
2023-04-13T17:33:19.496Z,0.95
2023-04-13T17:35:46.642Z,1.60
2023-04-13T17:38:13.456Z,1.40
2023-04-13T17:40:40.503Z,1.50
2023-04-13T17:43:09.045Z,1.40
2023-04-13T17:45:37.277Z,1.60
2023-04-13T17:48:06.007Z,1.63
2023-04-13T17:50:32.976Z,2.42
2023-04-13T17:53:03.611Z,2.10
2023-04-13T17:55:31.297Z,1.50
2023-04-13T17:57:58.197Z,1.77
2023-04-13T18:00:27.017Z,1.67
2023-04-13T18:02:54.311Z,1.52
2023-04-13T18:05:21.996Z,1.70
2023-04-13T18:07:48.883Z,2.10
2023-04-13T18:10:15.816Z,1.92
2023-04-13T18:12:42.636Z,1.77
2023-04-13T18:15:10.055Z,2.38
2023-04-13T18:17:38.772Z,1.70
2023-04-13T18:20:06.706Z,2.22
2023-04-13T18:22:33.554Z,2.20
2023-04-13T18:25:00.519Z,1.90
2023-04-13T18:27:27.860Z,2.55
2023-04-13T18:29:57.857Z,1.70
2023-04-13T18:32:24.905Z,2.42
2023-04-13T18:34:52.350Z,1.90
2023-04-13T18:37:19.292Z,1.88
2023-04-13T18:39:46.419Z,1.90
2023-04-13T18:42:13.388Z,1.83
2023-04-13T18:44:40.520Z,2.15
2023-04-13T18:47:07.759Z,2.25
2023-04-13T18:49:34.574Z,1.70
2023-04-13T18:52:01.549Z,1.75
2023-04-13T18:54:29.392Z,1.20
2023-04-13T18:56:56.298Z,1.23
2023-04-13T18:59:23.174Z,1.25
2023-04-13T19:01:50.178Z,1.60
2023-04-13T19:04:17.285Z,1.58
2023-04-13T19:06:44.388Z,1.90
2023-04-13T19:09:11.270Z,1.92
2023-04-13T19:11:51.973Z,1.55
2023-04-13T19:14:19.077Z,2.13
2023-04-13T19:16:47.288Z,1.48
2023-04-13T19:19:15.242Z,1.90
2023-04-13T19:21:42.216Z,1.67
2023-04-13T19:24:11.467Z,1.45
2023-04-13T19:26:38.532Z,1.50
2023-04-13T19:29:05.455Z,1.60
2023-04-13T19:31:39.061Z,1.63
2023-04-13T19:34:07.650Z,1.88
2023-04-13T19:36:38.314Z,2.15
2023-04-13T19:39:08.028Z,1.42
2023-04-13T19:41:37.889Z,1.67
2023-04-13T19:44:05.730Z,1.80
2023-04-13T19:46:35.185Z,2.58
2023-04-13T19:49:02.839Z,2.00
2023-04-13T19:51:32.525Z,2.17
2023-04-13T19:54:02.230Z,1.67
2023-04-13T19:56:34.397Z,1.98
2023-04-13T19:59:02.912Z,2.42
2023-04-13T20:01:30.996Z,1.80
2023-04-13T20:03:58.159Z,2.10
2023-04-13T20:06:25.808Z,1.90
2023-04-13T20:08:52.976Z,2.15
2023-04-13T20:11:19.832Z,2.38
2023-04-13T20:13:46.956Z,2.05
2023-04-13T20:16:14.154Z,2.05
2023-04-13T20:18:41.136Z,2.42
2023-04-13T20:21:08.344Z,2.15
2023-04-13T20:23:36.355Z,1.77
2023-04-13T20:26:04.629Z,1.92
2023-04-13T20:28:33.296Z,1.92
2023-04-13T20:31:00.232Z,1.60
2023-04-13T20:33:27.324Z,2.10
2023-04-13T20:35:55.073Z,2.17
2023-04-13T20:38:22.150Z,1.98
2023-04-13T20:40:49.066Z,2.33
2023-04-13T20:43:17.774Z,1.80
2023-04-13T20:45:45.564Z,2.53
2023-04-13T20:50:47.856Z,2.00
2023-04-13T20:53:16.623Z,1.95
2023-04-13T20:55:43.608Z,2.08
2023-04-13T20:58:11.046Z,3.30
2023-04-13T21:00:38.508Z,2.40
2023-04-13T21:03:08.870Z,2.28
2023-04-13T21:05:36.609Z,2.40
2023-04-13T21:08:03.642Z,2.50
2023-04-13T21:10:31.222Z,2.33
2023-04-13T21:12:58.069Z,2.45
2023-04-13T21:15:24.984Z,2.58
2023-04-13T21:17:52.103Z,1.95
2023-04-13T21:20:19.108Z,2.80
2023-04-13T21:22:45.912Z,2.95
2023-04-13T21:25:12.869Z,2.63
2023-04-13T21:27:39.792Z,3.05
2023-04-13T21:30:07.374Z,3.10
2023-04-13T21:32:34.460Z,3.35
2023-04-13T21:35:01.299Z,2.70
2023-04-13T21:37:29.610Z,2.47
2023-04-13T21:39:57.883Z,3.03
2023-04-13T21:42:25.020Z,3.20
2023-04-13T21:44:51.862Z,2.92
2023-04-13T21:47:18.810Z,2.88
2023-04-13T21:49:45.813Z,2.88
2023-04-13T21:52:12.739Z,3.38
2023-04-13T21:54:39.950Z,3.17
2023-04-13T21:57:06.772Z,3.35
2023-04-13T21:59:33.700Z,3.22
2023-04-13T22:02:00.899Z,3.22
2023-04-13T22:04:27.954Z,3.45
2023-04-13T22:06:54.991Z,3.85
2023-04-13T22:09:22.298Z,3.55
2023-04-13T22:11:49.189Z,2.78
2023-04-13T22:14:16.091Z,3.00
2023-04-13T22:16:42.919Z,3.40
2023-04-13T22:19:09.781Z,3.42
2023-04-13T22:21:37.647Z,3.20
2023-04-13T22:24:04.702Z,3.60
2023-04-13T22:26:31.670Z,2.90
2023-04-13T22:28:59.148Z,2.75
2023-04-13T22:31:26.480Z,2.78
2023-04-13T22:33:53.398Z,3.30
2023-04-13T22:36:21.465Z,2.55
2023-04-13T22:38:49.443Z,4.15
2023-04-13T22:41:16.482Z,3.38
2023-04-13T22:43:43.452Z,3.20
2023-04-13T22:46:10.401Z,3.15
2023-04-13T22:48:37.250Z,3.17
2023-04-13T22:51:04.727Z,3.03
2023-04-13T22:53:31.754Z,3.53
2023-04-13T22:56:00.541Z,2.97
2023-04-13T22:58:27.890Z,3.00
2023-04-13T23:00:54.893Z,2.83
2023-04-13T23:03:22.148Z,3.30
2023-04-13T23:05:49.245Z,2.97
2023-04-13T23:08:16.113Z,3.08
2023-04-13T23:10:42.984Z,2.80
2023-04-13T23:13:09.969Z,3.05
2023-04-13T23:15:36.786Z,3.15
2023-04-13T23:18:03.773Z,3.22
2023-04-13T23:20:31.097Z,3.42
2023-04-13T23:22:58.090Z,2.90
2023-04-13T23:25:25.218Z,3.25
2023-04-13T23:27:52.227Z,3.17
2023-04-13T23:30:20.097Z,3.22
2023-04-13T23:32:46.986Z,3.50
2023-04-13T23:35:13.886Z,3.45
2023-04-13T23:37:42.281Z,3.15
2023-04-13T23:40:09.769Z,2.92
2023-04-13T23:42:36.654Z,3.13
2023-04-13T23:45:04.369Z,2.60
2023-04-13T23:47:31.531Z,3.17
2023-04-13T23:49:58.418Z,2.67
2023-04-13T23:52:25.303Z,3.05
2023-04-13T23:54:52.176Z,3.25
2023-04-13T23:57:18.988Z,3.03
2023-04-13T23:59:46.010Z,3.22
